sensor_id;sensor_type;location;lat;lon;timestamp;P1;durP1;ratioP1;P2;durP2;ratioP2
28304;SDS011;15569;42.652;23.040;2022-10-29T00:01:41;23.63;;;10.35;;
28304;SDS011;15569;42.652;23.040;2022-10-29T00:04:06;22.63;;;11.57;;
28304;SDS011;15569;42.652;23.040;2022-10-29T00:06:32;33.80;;;12.13;;
28304;SDS011;15569;42.652;23.040;2022-10-29T00:08:57;33.05;;;13.75;;
28304;SDS011;15569;42.652;23.040;2022-10-29T00:11:22;29.17;;;12.52;;
28304;SDS011;15569;42.652;23.040;2022-10-29T00:13:52;29.23;;;12.88;;
28304;SDS011;15569;42.652;23.040;2022-10-29T00:16:20;35.65;;;14.73;;
28304;SDS011;15569;42.652;23.040;2022-10-29T00:18:48;33.03;;;14.25;;
28304;SDS011;15569;42.652;23.040;2022-10-29T00:21:14;36.70;;;13.45;;
28304;SDS011;15569;42.652;23.040;2022-10-29T00:23:42;29.58;;;12.32;;
28304;SDS011;15569;42.652;23.040;2022-10-29T00:26:07;31.92;;;11.57;;
28304;SDS011;15569;42.652;23.040;2022-10-29T00:28:33;34.58;;;11.02;;
28304;SDS011;15569;42.652;23.040;2022-10-29T00:31:03;29.25;;;11.48;;
28304;SDS011;15569;42.652;23.040;2022-10-29T00:33:29;28.25;;;11.10;;
28304;SDS011;15569;42.652;23.040;2022-10-29T00:35:55;25.23;;;11.65;;
28304;SDS011;15569;42.652;23.040;2022-10-29T00:38:24;23.58;;;10.82;;
28304;SDS011;15569;42.652;23.040;2022-10-29T00:40:51;26.02;;;11.50;;
28304;SDS011;15569;42.652;23.040;2022-10-29T00:43:18;25.70;;;11.85;;
28304;SDS011;15569;42.652;23.040;2022-10-29T00:45:47;21.00;;;9.77;;
28304;SDS011;15569;42.652;23.040;2022-10-29T00:48:26;24.13;;;8.45;;
28304;SDS011;15569;42.652;23.040;2022-10-29T00:50:53;18.80;;;9.45;;
28304;SDS011;15569;42.652;23.040;2022-10-29T00:53:21;14.20;;;7.93;;
28304;SDS011;15569;42.652;23.040;2022-10-29T00:55:50;24.35;;;9.75;;
28304;SDS011;15569;42.652;23.040;2022-10-29T00:58:16;24.33;;;9.82;;
28304;SDS011;15569;42.652;23.040;2022-10-29T01:00:42;20.88;;;9.15;;
28304;SDS011;15569;42.652;23.040;2022-10-29T01:03:08;22.73;;;10.75;;
28304;SDS011;15569;42.652;23.040;2022-10-29T01:05:34;22.70;;;10.88;;
28304;SDS011;15569;42.652;23.040;2022-10-29T01:08:00;19.70;;;9.75;;
28304;SDS011;15569;42.652;23.040;2022-10-29T01:10:39;20.15;;;8.85;;
28304;SDS011;15569;42.652;23.040;2022-10-29T01:13:14;21.20;;;9.07;;
28304;SDS011;15569;42.652;23.040;2022-10-29T01:15:43;26.15;;;9.68;;
28304;SDS011;15569;42.652;23.040;2022-10-29T01:39:36;16.20;;;6.82;;
28304;SDS011;15569;42.652;23.040;2022-10-29T01:44:53;15.02;;;7.00;;
28304;SDS011;15569;42.652;23.040;2022-10-29T01:47:27;18.83;;;8.07;;
28304;SDS011;15569;42.652;23.040;2022-10-29T01:49:59;17.58;;;7.72;;
28304;SDS011;15569;42.652;23.040;2022-10-29T01:54:56;15.82;;;6.00;;
28304;SDS011;15569;42.652;23.040;2022-10-29T01:59:54;20.25;;;6.35;;
28304;SDS011;15569;42.652;23.040;2022-10-29T02:13:30;10.95;;;4.82;;
28304;SDS011;15569;42.652;23.040;2022-10-29T02:16:01;10.05;;;5.22;;
28304;SDS011;15569;42.652;23.040;2022-10-29T02:18:37;9.98;;;5.88;;
28304;SDS011;15569;42.652;23.040;2022-10-29T02:21:10;10.63;;;5.22;;
28304;SDS011;15569;42.652;23.040;2022-10-29T02:23:39;11.80;;;5.90;;
28304;SDS011;15569;42.652;23.040;2022-10-29T02:26:04;19.48;;;8.15;;
28304;SDS011;15569;42.652;23.040;2022-10-29T02:28:30;13.45;;;7.47;;
28304;SDS011;15569;42.652;23.040;2022-10-29T02:30:55;10.82;;;6.07;;
28304;SDS011;15569;42.652;23.040;2022-10-29T02:33:20;14.82;;;7.18;;
28304;SDS011;15569;42.652;23.040;2022-10-29T02:35:46;12.63;;;5.78;;
28304;SDS011;15569;42.652;23.040;2022-10-29T02:38:11;14.43;;;5.35;;
28304;SDS011;15569;42.652;23.040;2022-10-29T02:40:37;10.75;;;5.85;;
28304;SDS011;15569;42.652;23.040;2022-10-29T02:43:02;12.27;;;5.40;;
28304;SDS011;15569;42.652;23.040;2022-10-29T02:45:27;12.02;;;6.00;;
28304;SDS011;15569;42.652;23.040;2022-10-29T02:47:53;13.05;;;5.82;;
28304;SDS011;15569;42.652;23.040;2022-10-29T02:50:18;12.25;;;5.43;;
28304;SDS011;15569;42.652;23.040;2022-10-29T02:52:43;19.67;;;10.98;;
28304;SDS011;15569;42.652;23.040;2022-10-29T02:55:09;13.52;;;6.90;;
28304;SDS011;15569;42.652;23.040;2022-10-29T02:57:34;14.75;;;6.57;;
28304;SDS011;15569;42.652;23.040;2022-10-29T02:59:59;15.32;;;6.20;;
28304;SDS011;15569;42.652;23.040;2022-10-29T03:02:25;15.38;;;5.32;;
28304;SDS011;15569;42.652;23.040;2022-10-29T03:04:50;18.33;;;6.05;;
28304;SDS011;15569;42.652;23.040;2022-10-29T03:07:16;10.15;;;5.07;;
28304;SDS011;15569;42.652;23.040;2022-10-29T03:09:41;13.30;;;6.13;;
28304;SDS011;15569;42.652;23.040;2022-10-29T03:12:06;13.73;;;6.65;;
28304;SDS011;15569;42.652;23.040;2022-10-29T03:14:32;14.27;;;5.57;;
28304;SDS011;15569;42.652;23.040;2022-10-29T03:16:57;14.77;;;6.70;;
28304;SDS011;15569;42.652;23.040;2022-10-29T03:19:23;18.52;;;5.85;;
28304;SDS011;15569;42.652;23.040;2022-10-29T03:21:48;14.23;;;7.43;;
28304;SDS011;15569;42.652;23.040;2022-10-29T03:24:13;19.38;;;7.40;;
28304;SDS011;15569;42.652;23.040;2022-10-29T03:26:39;16.52;;;7.13;;
28304;SDS011;15569;42.652;23.040;2022-10-29T03:29:04;15.15;;;7.18;;
28304;SDS011;15569;42.652;23.040;2022-10-29T03:31:29;28.52;;;9.23;;
28304;SDS011;15569;42.652;23.040;2022-10-29T03:33:55;22.63;;;9.00;;
28304;SDS011;15569;42.652;23.040;2022-10-29T03:36:20;21.60;;;8.88;;
28304;SDS011;15569;42.652;23.040;2022-10-29T03:38:46;16.10;;;7.78;;
28304;SDS011;15569;42.652;23.040;2022-10-29T03:41:11;16.52;;;7.32;;
28304;SDS011;15569;42.652;23.040;2022-10-29T03:43:37;15.38;;;8.85;;
28304;SDS011;15569;42.652;23.040;2022-10-29T03:46:02;22.85;;;9.27;;
28304;SDS011;15569;42.652;23.040;2022-10-29T03:48:28;22.63;;;8.65;;
28304;SDS011;15569;42.652;23.040;2022-10-29T03:50:54;22.75;;;9.52;;
28304;SDS011;15569;42.652;23.040;2022-10-29T03:53:24;21.35;;;8.77;;
28304;SDS011;15569;42.652;23.040;2022-10-29T03:55:50;19.92;;;9.77;;
28304;SDS011;15569;42.652;23.040;2022-10-29T03:58:17;20.98;;;8.95;;
28304;SDS011;15569;42.652;23.040;2022-10-29T04:00:43;17.02;;;8.55;;
28304;SDS011;15569;42.652;23.040;2022-10-29T04:03:08;15.25;;;9.10;;
28304;SDS011;15569;42.652;23.040;2022-10-29T04:05:34;18.52;;;7.70;;
28304;SDS011;15569;42.652;23.040;2022-10-29T04:07:59;18.23;;;8.75;;
28304;SDS011;15569;42.652;23.040;2022-10-29T04:10:24;22.73;;;9.57;;
28304;SDS011;15569;42.652;23.040;2022-10-29T04:12:51;18.35;;;8.10;;
28304;SDS011;15569;42.652;23.040;2022-10-29T04:15:16;18.00;;;8.18;;
28304;SDS011;15569;42.652;23.040;2022-10-29T04:17:42;17.85;;;7.75;;
28304;SDS011;15569;42.652;23.040;2022-10-29T04:20:07;16.85;;;8.95;;
28304;SDS011;15569;42.652;23.040;2022-10-29T04:22:33;23.10;;;9.32;;
28304;SDS011;15569;42.652;23.040;2022-10-29T04:24:58;22.95;;;10.07;;
28304;SDS011;15569;42.652;23.040;2022-10-29T04:27:25;25.52;;;8.23;;
28304;SDS011;15569;42.652;23.040;2022-10-29T04:29:51;22.85;;;9.82;;
28304;SDS011;15569;42.652;23.040;2022-10-29T04:32:16;23.55;;;10.02;;
28304;SDS011;15569;42.652;23.040;2022-10-29T04:34:41;24.35;;;9.25;;
28304;SDS011;15569;42.652;23.040;2022-10-29T04:37:07;29.92;;;9.77;;
28304;SDS011;15569;42.652;23.040;2022-10-29T04:39:32;21.63;;;9.93;;
28304;SDS011;15569;42.652;23.040;2022-10-29T04:41:57;31.08;;;11.40;;
28304;SDS011;15569;42.652;23.040;2022-10-29T04:44:23;25.45;;;11.77;;
28304;SDS011;15569;42.652;23.040;2022-10-29T04:46:48;28.67;;;12.02;;
28304;SDS011;15569;42.652;23.040;2022-10-29T04:49:14;28.67;;;14.00;;
28304;SDS011;15569;42.652;23.040;2022-10-29T04:51:39;35.20;;;16.00;;
28304;SDS011;15569;42.652;23.040;2022-10-29T04:54:04;30.65;;;13.93;;
28304;SDS011;15569;42.652;23.040;2022-10-29T04:56:30;38.20;;;14.27;;
28304;SDS011;15569;42.652;23.040;2022-10-29T04:58:55;32.45;;;15.18;;
28304;SDS011;15569;42.652;23.040;2022-10-29T05:01:20;47.33;;;18.13;;
28304;SDS011;15569;42.652;23.040;2022-10-29T05:03:46;50.28;;;20.98;;
28304;SDS011;15569;42.652;23.040;2022-10-29T05:06:11;49.53;;;18.17;;
28304;SDS011;15569;42.652;23.040;2022-10-29T05:08:37;43.10;;;20.77;;
28304;SDS011;15569;42.652;23.040;2022-10-29T05:11:03;48.00;;;16.95;;
28304;SDS011;15569;42.652;23.040;2022-10-29T05:13:29;45.85;;;20.67;;
28304;SDS011;15569;42.652;23.040;2022-10-29T05:15:55;41.08;;;17.35;;
28304;SDS011;15569;42.652;23.040;2022-10-29T05:18:20;54.78;;;20.10;;
28304;SDS011;15569;42.652;23.040;2022-10-29T05:20:46;72.25;;;25.42;;
28304;SDS011;15569;42.652;23.040;2022-10-29T05:23:11;47.75;;;16.45;;
28304;SDS011;15569;42.652;23.040;2022-10-29T05:25:37;56.10;;;20.02;;
28304;SDS011;15569;42.652;23.040;2022-10-29T05:30:37;48.53;;;15.85;;
28304;SDS011;15569;42.652;23.040;2022-10-29T05:33:06;51.90;;;19.92;;
28304;SDS011;15569;42.652;23.040;2022-10-29T05:35:33;81.57;;;27.17;;
28304;SDS011;15569;42.652;23.040;2022-10-29T05:37:59;110.50;;;36.85;;
28304;SDS011;15569;42.652;23.040;2022-10-29T05:40:25;109.60;;;36.75;;
28304;SDS011;15569;42.652;23.040;2022-10-29T05:42:50;84.95;;;29.48;;
28304;SDS011;15569;42.652;23.040;2022-10-29T05:45:16;70.95;;;25.83;;
28304;SDS011;15569;42.652;23.040;2022-10-29T05:47:42;73.70;;;24.45;;
28304;SDS011;15569;42.652;23.040;2022-10-29T05:50:08;76.13;;;29.38;;
28304;SDS011;15569;42.652;23.040;2022-10-29T05:52:34;66.15;;;23.27;;
28304;SDS011;15569;42.652;23.040;2022-10-29T05:54:59;57.40;;;20.05;;
28304;SDS011;15569;42.652;23.040;2022-10-29T05:57:25;39.05;;;16.05;;
28304;SDS011;15569;42.652;23.040;2022-10-29T05:59:51;30.33;;;13.43;;
28304;SDS011;15569;42.652;23.040;2022-10-29T06:02:16;31.75;;;12.45;;
28304;SDS011;15569;42.652;23.040;2022-10-29T06:04:42;28.85;;;12.02;;
28304;SDS011;15569;42.652;23.040;2022-10-29T06:07:07;31.27;;;11.05;;
28304;SDS011;15569;42.652;23.040;2022-10-29T06:09:33;30.20;;;12.32;;
28304;SDS011;15569;42.652;23.040;2022-10-29T06:11:58;24.10;;;10.68;;
28304;SDS011;15569;42.652;23.040;2022-10-29T06:14:23;30.92;;;11.98;;
28304;SDS011;15569;42.652;23.040;2022-10-29T06:16:49;36.78;;;12.60;;
28304;SDS011;15569;42.652;23.040;2022-10-29T06:19:14;40.15;;;11.95;;
28304;SDS011;15569;42.652;23.040;2022-10-29T06:21:40;27.02;;;11.80;;
28304;SDS011;15569;42.652;23.040;2022-10-29T06:24:05;29.73;;;12.77;;
28304;SDS011;15569;42.652;23.040;2022-10-29T06:26:31;35.65;;;11.18;;
28304;SDS011;15569;42.652;23.040;2022-10-29T06:28:57;33.13;;;12.15;;
28304;SDS011;15569;42.652;23.040;2022-10-29T06:31:23;44.40;;;12.63;;
28304;SDS011;15569;42.652;23.040;2022-10-29T06:33:49;35.90;;;13.02;;
28304;SDS011;15569;42.652;23.040;2022-10-29T06:36:14;51.58;;;16.25;;
28304;SDS011;15569;42.652;23.040;2022-10-29T06:38:40;41.42;;;14.73;;
28304;SDS011;15569;42.652;23.040;2022-10-29T06:41:05;29.63;;;12.35;;
28304;SDS011;15569;42.652;23.040;2022-10-29T06:43:31;54.15;;;21.95;;
28304;SDS011;15569;42.652;23.040;2022-10-29T06:45:56;50.78;;;14.88;;
28304;SDS011;15569;42.652;23.040;2022-10-29T06:48:22;28.95;;;12.57;;
28304;SDS011;15569;42.652;23.040;2022-10-29T06:50:47;32.08;;;11.52;;
28304;SDS011;15569;42.652;23.040;2022-10-29T06:53:13;27.48;;;10.90;;
28304;SDS011;15569;42.652;23.040;2022-10-29T06:55:39;27.08;;;11.32;;
28304;SDS011;15569;42.652;23.040;2022-10-29T06:58:06;28.50;;;12.10;;
28304;SDS011;15569;42.652;23.040;2022-10-29T07:00:34;29.85;;;10.50;;
28304;SDS011;15569;42.652;23.040;2022-10-29T07:03:00;28.85;;;9.95;;
28304;SDS011;15569;42.652;23.040;2022-10-29T07:05:27;29.58;;;11.93;;
28304;SDS011;15569;42.652;23.040;2022-10-29T07:07:53;38.60;;;13.40;;
28304;SDS011;15569;42.652;23.040;2022-10-29T07:10:23;29.70;;;10.68;;
28304;SDS011;15569;42.652;23.040;2022-10-29T07:12:49;35.72;;;11.65;;
28304;SDS011;15569;42.652;23.040;2022-10-29T07:15:15;30.70;;;9.20;;
28304;SDS011;15569;42.652;23.040;2022-10-29T07:17:40;30.42;;;8.57;;
28304;SDS011;15569;42.652;23.040;2022-10-29T07:20:06;19.75;;;7.80;;
28304;SDS011;15569;42.652;23.040;2022-10-29T07:22:33;23.63;;;8.70;;
28304;SDS011;15569;42.652;23.040;2022-10-29T07:24:59;16.33;;;7.07;;
28304;SDS011;15569;42.652;23.040;2022-10-29T07:27:26;24.08;;;7.25;;
28304;SDS011;15569;42.652;23.040;2022-10-29T07:29:51;21.38;;;8.27;;
28304;SDS011;15569;42.652;23.040;2022-10-29T07:32:17;23.20;;;7.85;;
28304;SDS011;15569;42.652;23.040;2022-10-29T07:34:42;19.17;;;7.90;;
28304;SDS011;15569;42.652;23.040;2022-10-29T07:37:07;18.25;;;8.27;;
28304;SDS011;15569;42.652;23.040;2022-10-29T07:39:33;29.15;;;9.60;;
28304;SDS011;15569;42.652;23.040;2022-10-29T07:41:58;20.73;;;8.05;;
28304;SDS011;15569;42.652;23.040;2022-10-29T07:44:24;37.70;;;12.30;;
28304;SDS011;15569;42.652;23.040;2022-10-29T07:46:49;31.10;;;10.82;;
28304;SDS011;15569;42.652;23.040;2022-10-29T07:49:14;16.88;;;6.68;;
28304;SDS011;15569;42.652;23.040;2022-10-29T07:51:40;15.20;;;6.40;;
28304;SDS011;15569;42.652;23.040;2022-10-29T07:54:06;17.20;;;7.20;;
28304;SDS011;15569;42.652;23.040;2022-10-29T07:56:32;13.90;;;5.70;;
28304;SDS011;15569;42.652;23.040;2022-10-29T07:58:57;14.75;;;5.95;;
28304;SDS011;15569;42.652;23.040;2022-10-29T08:01:22;18.38;;;6.22;;
28304;SDS011;15569;42.652;23.040;2022-10-29T08:03:51;37.97;;;6.00;;
28304;SDS011;15569;42.652;23.040;2022-10-29T08:06:16;19.20;;;5.90;;
28304;SDS011;15569;42.652;23.040;2022-10-29T08:08:42;21.70;;;5.45;;
28304;SDS011;15569;42.652;23.040;2022-10-29T08:11:07;12.88;;;5.72;;
28304;SDS011;15569;42.652;23.040;2022-10-29T08:13:32;13.60;;;5.32;;
28304;SDS011;15569;42.652;23.040;2022-10-29T08:15:58;9.85;;;4.60;;
28304;SDS011;15569;42.652;23.040;2022-10-29T08:18:24;18.02;;;5.75;;
28304;SDS011;15569;42.652;23.040;2022-10-29T08:20:49;16.30;;;7.30;;
28304;SDS011;15569;42.652;23.040;2022-10-29T08:23:15;15.48;;;6.07;;
28304;SDS011;15569;42.652;23.040;2022-10-29T08:25:41;13.35;;;7.88;;
28304;SDS011;15569;42.652;23.040;2022-10-29T08:28:10;18.55;;;8.88;;
28304;SDS011;15569;42.652;23.040;2022-10-29T08:30:37;12.25;;;4.95;;
28304;SDS011;15569;42.652;23.040;2022-10-29T08:33:03;13.60;;;5.88;;
28304;SDS011;15569;42.652;23.040;2022-10-29T08:35:30;10.18;;;4.50;;
28304;SDS011;15569;42.652;23.040;2022-10-29T08:37:56;9.65;;;4.75;;
28304;SDS011;15569;42.652;23.040;2022-10-29T08:45:52;14.95;;;5.40;;
28304;SDS011;15569;42.652;23.040;2022-10-29T08:51:01;9.60;;;4.25;;
28304;SDS011;15569;42.652;23.040;2022-10-29T08:53:37;10.93;;;3.83;;
28304;SDS011;15569;42.652;23.040;2022-10-29T08:56:10;7.97;;;4.03;;
28304;SDS011;15569;42.652;23.040;2022-10-29T08:58:42;19.88;;;4.82;;
28304;SDS011;15569;42.652;23.040;2022-10-29T09:01:16;12.18;;;5.53;;
28304;SDS011;15569;42.652;23.040;2022-10-29T09:03:45;10.52;;;5.13;;
28304;SDS011;15569;42.652;23.040;2022-10-29T09:11:54;5.85;;;3.22;;
28304;SDS011;15569;42.652;23.040;2022-10-29T09:17:28;9.90;;;5.28;;
28304;SDS011;15569;42.652;23.040;2022-10-29T09:19:59;12.55;;;3.97;;
28304;SDS011;15569;42.652;23.040;2022-10-29T09:22:28;5.10;;;3.58;;
28304;SDS011;15569;42.652;23.040;2022-10-29T09:25:16;11.07;;;5.15;;
28304;SDS011;15569;42.652;23.040;2022-10-29T09:30:30;10.43;;;5.18;;
28304;SDS011;15569;42.652;23.040;2022-10-29T09:35:37;8.15;;;4.03;;
28304;SDS011;15569;42.652;23.040;2022-10-29T09:38:23;8.23;;;3.88;;
28304;SDS011;15569;42.652;23.040;2022-10-29T09:50:56;6.97;;;3.20;;
28304;SDS011;15569;42.652;23.040;2022-10-29T09:53:30;5.70;;;3.78;;
28304;SDS011;15569;42.652;23.040;2022-10-29T09:55:55;4.43;;;3.05;;
28304;SDS011;15569;42.652;23.040;2022-10-29T09:58:25;5.20;;;3.15;;
28304;SDS011;15569;42.652;23.040;2022-10-29T10:00:52;8.68;;;5.43;;
28304;SDS011;15569;42.652;23.040;2022-10-29T10:06:18;5.85;;;4.18;;
28304;SDS011;15569;42.652;23.040;2022-10-29T10:09:03;7.50;;;4.63;;
28304;SDS011;15569;42.652;23.040;2022-10-29T10:11:34;6.32;;;3.85;;
28304;SDS011;15569;42.652;23.040;2022-10-29T10:14:04;7.68;;;3.90;;
28304;SDS011;15569;42.652;23.040;2022-10-29T10:16:38;17.25;;;8.82;;
28304;SDS011;15569;42.652;23.040;2022-10-29T10:19:18;12.88;;;6.97;;
28304;SDS011;15569;42.652;23.040;2022-10-29T10:21:50;17.08;;;7.95;;
28304;SDS011;15569;42.652;23.040;2022-10-29T10:24:33;20.05;;;10.25;;
28304;SDS011;15569;42.652;23.040;2022-10-29T10:27:00;9.70;;;4.60;;
28304;SDS011;15569;42.652;23.040;2022-10-29T10:30:05;12.15;;;4.82;;
28304;SDS011;15569;42.652;23.040;2022-10-29T10:32:35;9.40;;;3.92;;
28304;SDS011;15569;42.652;23.040;2022-10-29T10:35:00;6.55;;;3.35;;
28304;SDS011;15569;42.652;23.040;2022-10-29T10:37:26;6.93;;;3.90;;
28304;SDS011;15569;42.652;23.040;2022-10-29T10:40:00;24.83;;;11.02;;
28304;SDS011;15569;42.652;23.040;2022-10-29T10:42:37;6.60;;;4.13;;
28304;SDS011;15569;42.652;23.040;2022-10-29T10:47:40;4.57;;;3.00;;
28304;SDS011;15569;42.652;23.040;2022-10-29T10:50:27;4.97;;;2.90;;
28304;SDS011;15569;42.652;23.040;2022-10-29T10:52:54;3.75;;;2.67;;
28304;SDS011;15569;42.652;23.040;2022-10-29T10:55:31;12.73;;;5.20;;
28304;SDS011;15569;42.652;23.040;2022-10-29T11:00:27;11.40;;;3.83;;
28304;SDS011;15569;42.652;23.040;2022-10-29T11:08:55;8.88;;;4.20;;
28304;SDS011;15569;42.652;23.040;2022-10-29T11:11:29;13.95;;;3.17;;
28304;SDS011;15569;42.652;23.040;2022-10-29T11:13:59;8.13;;;3.58;;
28304;SDS011;15569;42.652;23.040;2022-10-29T11:16:31;10.40;;;4.57;;
28304;SDS011;15569;42.652;23.040;2022-10-29T11:22:11;11.07;;;6.25;;
28304;SDS011;15569;42.652;23.040;2022-10-29T11:24:49;7.07;;;2.42;;
28304;SDS011;15569;42.652;23.040;2022-10-29T11:30:18;3.45;;;2.55;;
28304;SDS011;15569;42.652;23.040;2022-10-29T11:35:28;3.88;;;2.35;;
28304;SDS011;15569;42.652;23.040;2022-10-29T11:38:11;10.20;;;4.85;;
28304;SDS011;15569;42.652;23.040;2022-10-29T11:43:36;4.32;;;2.28;;
28304;SDS011;15569;42.652;23.040;2022-10-29T11:46:06;6.45;;;2.90;;
28304;SDS011;15569;42.652;23.040;2022-10-29T11:54:11;4.88;;;2.40;;
28304;SDS011;15569;42.652;23.040;2022-10-29T11:56:58;6.70;;;4.17;;
28304;SDS011;15569;42.652;23.040;2022-10-29T12:08:02;2.22;;;2.03;;
28304;SDS011;15569;42.652;23.040;2022-10-29T12:10:39;7.38;;;4.22;;
28304;SDS011;15569;42.652;23.040;2022-10-29T12:18:40;3.90;;;1.90;;
28304;SDS011;15569;42.652;23.040;2022-10-29T12:26:52;4.30;;;2.88;;
28304;SDS011;15569;42.652;23.040;2022-10-29T12:40:23;4.18;;;2.60;;
28304;SDS011;15569;42.652;23.040;2022-10-29T12:42:52;10.63;;;2.08;;
28304;SDS011;15569;42.652;23.040;2022-10-29T12:56:08;5.45;;;3.53;;
28304;SDS011;15569;42.652;23.040;2022-10-29T12:58:52;11.43;;;6.43;;
28304;SDS011;15569;42.652;23.040;2022-10-29T13:09:22;2.90;;;1.70;;
28304;SDS011;15569;42.652;23.040;2022-10-29T13:11:55;2.05;;;1.70;;
28304;SDS011;15569;42.652;23.040;2022-10-29T13:17:04;3.53;;;2.20;;
28304;SDS011;15569;42.652;23.040;2022-10-29T13:19:45;2.58;;;2.03;;
28304;SDS011;15569;42.652;23.040;2022-10-29T13:24:41;8.80;;;2.13;;
28304;SDS011;15569;42.652;23.040;2022-10-29T13:29:41;3.92;;;1.92;;
28304;SDS011;15569;42.652;23.040;2022-10-29T13:32:27;2.85;;;2.03;;
28304;SDS011;15569;42.652;23.040;2022-10-29T13:37:54;2.40;;;1.75;;
28304;SDS011;15569;42.652;23.040;2022-10-29T13:40:42;4.63;;;3.40;;
28304;SDS011;15569;42.652;23.040;2022-10-29T13:43:26;2.60;;;2.03;;
28304;SDS011;15569;42.652;23.040;2022-10-29T13:46:02;5.07;;;1.98;;
28304;SDS011;15569;42.652;23.040;2022-10-29T13:48:42;3.10;;;1.80;;
28304;SDS011;15569;42.652;23.040;2022-10-29T13:51:13;3.47;;;2.05;;
28304;SDS011;15569;42.652;23.040;2022-10-29T13:56:19;3.95;;;2.00;;
28304;SDS011;15569;42.652;23.040;2022-10-29T13:59:08;3.45;;;1.80;;
28304;SDS011;15569;42.652;23.040;2022-10-29T14:01:41;6.07;;;2.25;;
28304;SDS011;15569;42.652;23.040;2022-10-29T14:04:29;7.85;;;1.80;;
28304;SDS011;15569;42.652;23.040;2022-10-29T14:07:01;3.47;;;2.00;;
28304;SDS011;15569;42.652;23.040;2022-10-29T14:09:43;3.42;;;2.00;;
28304;SDS011;15569;42.652;23.040;2022-10-29T14:12:14;3.38;;;1.80;;
28304;SDS011;15569;42.652;23.040;2022-10-29T14:17:16;4.45;;;2.20;;
28304;SDS011;15569;42.652;23.040;2022-10-29T14:19:46;5.22;;;1.85;;
28304;SDS011;15569;42.652;23.040;2022-10-29T14:22:14;2.13;;;1.83;;
28304;SDS011;15569;42.652;23.040;2022-10-29T14:24:40;3.53;;;1.90;;
28304;SDS011;15569;42.652;23.040;2022-10-29T14:27:06;2.88;;;1.90;;
28304;SDS011;15569;42.652;23.040;2022-10-29T14:29:32;2.25;;;1.63;;
28304;SDS011;15569;42.652;23.040;2022-10-29T14:32:17;5.47;;;1.83;;
28304;SDS011;15569;42.652;23.040;2022-10-29T14:34:47;3.85;;;2.65;;
28304;SDS011;15569;42.652;23.040;2022-10-29T14:37:30;11.40;;;4.72;;
28304;SDS011;15569;42.652;23.040;2022-10-29T14:40:01;9.07;;;5.80;;
28304;SDS011;15569;42.652;23.040;2022-10-29T14:42:42;12.02;;;8.18;;
28304;SDS011;15569;42.652;23.040;2022-10-29T14:45:22;6.90;;;5.05;;
28304;SDS011;15569;42.652;23.040;2022-10-29T14:47:52;14.85;;;4.25;;
28304;SDS011;15569;42.652;23.040;2022-10-29T14:50:21;13.15;;;5.50;;
28304;SDS011;15569;42.652;23.040;2022-10-29T14:52:50;9.70;;;5.13;;
28304;SDS011;15569;42.652;23.040;2022-10-29T14:55:31;20.40;;;7.80;;
28304;SDS011;15569;42.652;23.040;2022-10-29T15:00:35;25.55;;;7.85;;
28304;SDS011;15569;42.652;23.040;2022-10-29T15:03:01;25.70;;;8.82;;
28304;SDS011;15569;42.652;23.040;2022-10-29T15:13:19;27.00;;;8.75;;
28304;SDS011;15569;42.652;23.040;2022-10-29T15:15:51;15.90;;;6.35;;
28304;SDS011;15569;42.652;23.040;2022-10-29T15:18:19;14.50;;;6.63;;
28304;SDS011;15569;42.652;23.040;2022-10-29T15:20:47;18.98;;;7.53;;
28304;SDS011;15569;42.652;23.040;2022-10-29T15:25:48;34.58;;;14.35;;
28304;SDS011;15569;42.652;23.040;2022-10-29T15:28:25;119.15;;;41.92;;
28304;SDS011;15569;42.652;23.040;2022-10-29T15:30:53;144.55;;;52.45;;
28304;SDS011;15569;42.652;23.040;2022-10-29T15:33:25;121.65;;;40.90;;
28304;SDS011;15569;42.652;23.040;2022-10-29T15:35:53;132.27;;;43.50;;
28304;SDS011;15569;42.652;23.040;2022-10-29T15:43:32;102.22;;;33.95;;
28304;SDS011;15569;42.652;23.040;2022-10-29T15:46:03;99.53;;;31.95;;
28304;SDS011;15569;42.652;23.040;2022-10-29T15:48:33;100.85;;;32.15;;
28304;SDS011;15569;42.652;23.040;2022-10-29T15:51:01;87.97;;;29.98;;
28304;SDS011;15569;42.652;23.040;2022-10-29T15:53:28;84.57;;;31.23;;
28304;SDS011;15569;42.652;23.040;2022-10-29T15:55:53;104.95;;;35.85;;
28304;SDS011;15569;42.652;23.040;2022-10-29T15:58:19;98.43;;;31.33;;
28304;SDS011;15569;42.652;23.040;2022-10-29T16:00:47;83.05;;;31.05;;
28304;SDS011;15569;42.652;23.040;2022-10-29T16:03:14;51.20;;;21.35;;
28304;SDS011;15569;42.652;23.040;2022-10-29T16:05:44;81.43;;;25.80;;
28304;SDS011;15569;42.652;23.040;2022-10-29T16:11:19;106.03;;;32.25;;
28304;SDS011;15569;42.652;23.040;2022-10-29T16:13:45;113.78;;;35.17;;
28304;SDS011;15569;42.652;23.040;2022-10-29T16:16:15;106.75;;;36.47;;
28304;SDS011;15569;42.652;23.040;2022-10-29T16:18:43;90.75;;;29.85;;
28304;SDS011;15569;42.652;23.040;2022-10-29T16:21:11;86.20;;;27.42;;
28304;SDS011;15569;42.652;23.040;2022-10-29T16:23:38;80.75;;;29.58;;
28304;SDS011;15569;42.652;23.040;2022-10-29T16:26:04;78.63;;;26.38;;
28304;SDS011;15569;42.652;23.040;2022-10-29T16:28:30;53.03;;;19.88;;
28304;SDS011;15569;42.652;23.040;2022-10-29T16:30:56;47.30;;;16.38;;
28304;SDS011;15569;42.652;23.040;2022-10-29T16:33:23;43.88;;;12.80;;
28304;SDS011;15569;42.652;23.040;2022-10-29T16:35:49;29.98;;;12.15;;
28304;SDS011;15569;42.652;23.040;2022-10-29T16:38:14;22.42;;;10.65;;
28304;SDS011;15569;42.652;23.040;2022-10-29T16:40:42;27.15;;;10.30;;
28304;SDS011;15569;42.652;23.040;2022-10-29T16:43:08;25.98;;;9.98;;
28304;SDS011;15569;42.652;23.040;2022-10-29T16:45:34;23.15;;;9.30;;
28304;SDS011;15569;42.652;23.040;2022-10-29T16:48:00;21.42;;;8.15;;
28304;SDS011;15569;42.652;23.040;2022-10-29T16:50:26;23.83;;;7.88;;
28304;SDS011;15569;42.652;23.040;2022-10-29T16:52:57;32.15;;;7.57;;
28304;SDS011;15569;42.652;23.040;2022-10-29T16:55:34;15.07;;;6.50;;
28304;SDS011;15569;42.652;23.040;2022-10-29T16:58:00;22.98;;;7.05;;
28304;SDS011;15569;42.652;23.040;2022-10-29T17:00:26;15.07;;;6.55;;
28304;SDS011;15569;42.652;23.040;2022-10-29T17:02:55;22.53;;;8.57;;
28304;SDS011;15569;42.652;23.040;2022-10-29T17:05:23;15.27;;;7.40;;
28304;SDS011;15569;42.652;23.040;2022-10-29T17:07:48;20.00;;;8.13;;
28304;SDS011;15569;42.652;23.040;2022-10-29T17:10:18;17.70;;;7.15;;
28304;SDS011;15569;42.652;23.040;2022-10-29T17:12:43;15.57;;;7.78;;
28304;SDS011;15569;42.652;23.040;2022-10-29T17:15:08;19.05;;;8.98;;
28304;SDS011;15569;42.652;23.040;2022-10-29T17:17:34;18.40;;;9.27;;
28304;SDS011;15569;42.652;23.040;2022-10-29T17:19:59;20.08;;;8.85;;
28304;SDS011;15569;42.652;23.040;2022-10-29T17:22:25;13.20;;;8.02;;
28304;SDS011;15569;42.652;23.040;2022-10-29T17:24:50;14.68;;;7.88;;
28304;SDS011;15569;42.652;23.040;2022-10-29T17:27:16;15.95;;;8.20;;
28304;SDS011;15569;42.652;23.040;2022-10-29T17:29:41;16.88;;;6.88;;
28304;SDS011;15569;42.652;23.040;2022-10-29T17:32:06;13.13;;;7.78;;
28304;SDS011;15569;42.652;23.040;2022-10-29T17:34:33;18.05;;;7.30;;
28304;SDS011;15569;42.652;23.040;2022-10-29T17:36:58;9.15;;;6.18;;
28304;SDS011;15569;42.652;23.040;2022-10-29T17:39:24;13.02;;;7.10;;